Time;durP1;ratioP1;P1;durP2;ratioP2;P2;SDS_P1;SDS_P2;PMS_P1;PMS_P2;Temp;Humidity;BMP_temperature;BMP_pressure;BME280_temperature;BME280_humidity;BME280_pressure;Samples;Min_cycle;Max_cycle;Signal;HPM_P1;HPM_P2
2023/04/01 00:00:58;;;;;;;3.17;1.33;;;;;8.90;94871.00;;;;8325831;28;20244;-70
2023/04/01 00:05:06;;;;;;;3.43;1.30;;;;;8.90;94867.00;;;;8337033;28;20315;-70
2023/04/01 00:09:10;;;;;;;1.47;1.30;;;;;8.90;94864.00;;;;8339259;28;20204;-70
2023/04/01 00:13:14;;;;;;;6.70;1.77;;;;;8.90;94862.00;;;;8327115;28;20201;-70
2023/04/01 00:17:18;;;;;;;1.55;1.45;;;;;8.90;94874.00;;;;8330477;28;20255;-70
2023/04/01 00:21:24;;;;;;;5.67;1.30;;;;;8.90;94877.00;;;;8312926;28;20201;-70
2023/04/01 00:25:29;;;;;;;3.00;1.20;;;;;9.00;94874.00;;;;8322003;28;20196;-70
2023/04/01 00:29:38;;;;;;;6.97;1.45;;;;;9.00;94876.00;;;;8322775;28;20213;-70
2023/04/01 00:33:41;;;;;;;3.03;1.30;;;;;9.00;94868.00;;;;8318760;28;20202;-70
2023/04/01 00:37:47;;;;;;;4.43;1.40;;;;;9.00;94860.00;;;;8320997;28;20221;-70
2023/04/01 00:41:51;;;;;;;2.92;2.03;;;;;9.00;94852.00;;;;8320962;28;20209;-70
2023/04/01 00:45:57;;;;;;;2.15;1.20;;;;;8.90;94867.00;;;;8314750;28;20428;-71
2023/04/01 00:50:03;;;;;;;3.55;1.17;;;;;8.90;94862.00;;;;8324814;28;20399;-70
2023/04/01 00:54:09;;;;;;;4.60;1.90;;;;;8.80;94868.00;;;;8317240;28;20186;-70
2023/04/01 00:58:17;;;;;;;1.20;1.10;;;;;8.80;94852.00;;;;8320598;28;20221;-70
2023/04/01 01:02:21;;;;;;;3.33;1.20;;;;;8.70;94851.00;;;;8321467;28;20274;-70
2023/04/01 01:06:38;;;;;;;6.10;1.30;;;;;8.70;94857.00;;;;8327313;28;20216;-70
2023/04/01 01:10:48;;;;;;;2.15;1.40;;;;;8.70;94848.00;;;;8322001;28;20201;-71
2023/04/01 01:15:02;;;;;;;2.47;1.10;;;;;8.70;94852.00;;;;8319503;28;20202;-71
2023/04/01 01:19:18;;;;;;;2.53;1.20;;;;;8.70;94851.00;;;;8321725;28;20676;-70
2023/04/01 01:23:54;;;;;;;2.33;1.23;;;;;8.70;94849.00;;;;8328488;28;20280;-71
2023/04/01 01:28:07;;;;;;;1.20;1.10;;;;;8.70;94851.00;;;;8327138;28;20248;-70
2023/04/01 01:32:35;;;;;;;4.23;1.40;;;;;8.80;94854.00;;;;8334655;28;20198;-70
2023/04/01 01:36:44;;;;;;;1.70;1.00;;;;;8.80;94852.00;;;;8322847;28;20236;-70
2023/04/01 01:40:51;;;;;;;4.53;1.25;;;;;8.90;94846.00;;;;8324209;28;20225;-70
2023/04/01 01:44:59;;;;;;;1.40;1.13;;;;;8.90;94856.00;;;;8316159;28;20205;-70
2023/04/01 01:49:06;;;;;;;2.87;1.10;;;;;8.90;94849.00;;;;8319069;28;20197;-70
2023/04/01 01:53:13;;;;;;;2.03;1.20;;;;;8.90;94852.00;;;;8331695;28;20192;-70
2023/04/01 01:57:20;;;;;;;1.30;1.30;;;;;9.00;94858.00;;;;8326114;28;20268;-70
2023/04/01 02:01:29;;;;;;;1.38;1.00;;;;;9.00;94847.00;;;;8312446;28;20328;-70
2023/04/01 02:05:33;;;;;;;1.42;1.15;;;;;9.00;94858.00;;;;8343506;28;20715;-70
2023/04/01 02:09:39;;;;;;;4.07;1.27;;;;;9.00;94855.00;;;;8307159;28;20220;-70
2023/04/01 02:13:50;;;;;;;3.47;1.35;;;;;8.90;94850.00;;;;8329239;28;20217;-71
2023/04/01 02:17:58;;;;;;;1.27;0.90;;;;;8.80;94846.00;;;;8314862;28;20207;-71
2023/04/01 02:22:09;;;;;;;2.92;1.10;;;;;8.70;94850.00;;;;8322225;28;20280;-71
2023/04/01 02:26:19;;;;;;;2.25;1.23;;;;;8.80;94852.00;;;;8320068;28;20209;-70
2023/04/01 02:30:25;;;;;;;1.23;1.03;;;;;8.80;94848.00;;;;8330972;28;20197;-71
2023/04/01 02:34:30;;;;;;;5.67;1.57;;;;;8.80;94856.00;;;;8310219;28;20197;-71
2023/04/01 02:38:36;;;;;;;4.03;1.25;;;;;8.80;94863.00;;;;8316337;28;20230;-71
2023/04/01 02:42:41;;;;;;;0.90;0.90;;;;;8.80;94862.00;;;;8312463;28;20201;-71
2023/04/01 02:46:46;;;;;;;1.00;1.00;;;;;8.90;94867.00;;;;8322315;28;20201;-71
2023/04/01 02:50:49;;;;;;;3.20;1.60;;;;;8.90;94869.00;;;;8333352;28;20223;-71
2023/04/01 02:55:08;;;;;;;1.85;1.20;;;;;8.90;94872.00;;;;8318377;28;20283;-71
2023/04/01 02:59:13;;;;;;;3.15;1.20;;;;;8.90;94880.00;;;;8316448;28;20267;-71
2023/04/01 03:03:16;;;;;;;2.37;1.47;;;;;8.90;94871.00;;;;8319842;23;20324;-74
2023/04/01 03:07:19;;;;;;;2.13;1.20;;;;;8.90;94890.00;;;;8331850;28;20254;-73
2023/04/01 03:11:23;;;;;;;1.10;1.10;;;;;8.90;94893.00;;;;8347341;28;20489;-72
2023/04/01 03:15:28;;;;;;;3.47;1.48;;;;;8.80;94894.00;;;;8347343;28;20197;-74
2023/04/01 03:19:31;;;;;;;5.67;1.73;;;;;8.80;94894.00;;;;8341837;28;20228;-72
2023/04/01 03:23:34;;;;;;;1.20;1.10;;;;;8.90;94890.00;;;;8342814;28;20870;-73
2023/04/01 03:27:38;;;;;;;1.98;1.23;;;;;8.90;94886.00;;;;8334132;28;20213;-71
2023/04/01 03:31:42;;;;;;;6.70;1.43;;;;;8.90;94888.00;;;;8341280;28;20208;-71
2023/04/01 03:35:45;;;;;;;1.73;1.20;;;;;8.90;94888.00;;;;8339069;28;20200;-73
2023/04/01 03:39:53;;;;;;;2.30;1.20;;;;;8.90;94899.00;;;;8338183;28;20225;-72
2023/04/01 03:43:56;;;;;;;3.00;1.50;;;;;8.90;94897.00;;;;8364956;28;20199;-73
2023/04/01 03:48:01;;;;;;;1.50;1.20;;;;;8.90;94899.00;;;;8381831;28;20219;-73
2023/04/01 03:52:04;;;;;;;2.60;1.10;;;;;8.90;94899.00;;;;8374201;28;20224;-73
2023/04/01 03:56:26;;;;;;;2.63;1.47;;;;;8.80;94902.00;;;;8383443;28;20188;-73
2023/04/01 04:00:31;;;;;;;4.72;1.58;;;;;8.90;94894.00;;;;8380434;28;20277;-73
2023/04/01 04:04:36;;;;;;;2.97;1.40;;;;;8.80;94894.00;;;;8381662;28;20220;-74
2023/04/01 04:08:44;;;;;;;1.40;1.30;;;;;8.80;94909.00;;;;8381834;28;20197;-74
2023/04/01 04:12:47;;;;;;;2.50;1.30;;;;;8.80;94907.00;;;;8366002;28;20204;-72
2023/04/01 04:16:50;;;;;;;3.50;1.13;;;;;8.80;94913.00;;;;8381637;28;20197;-72
2023/04/01 04:20:55;;;;;;;1.37;1.13;;;;;8.70;94915.00;;;;8376135;28;20708;-73
2023/04/01 04:24:58;;;;;;;2.60;1.50;;;;;8.70;94922.00;;;;8383647;28;20869;-72
2023/04/01 04:29:01;;;;;;;2.73;1.10;;;;;8.70;94922.00;;;;8374564;28;20254;-72
2023/04/01 04:33:04;;;;;;;5.10;1.40;;;;;8.70;94916.00;;;;8386923;28;20196;-73
2023/04/01 04:37:11;;;;;;;1.13;1.13;;;;;8.60;94917.00;;;;8380831;28;20669;-73
2023/04/01 04:41:19;;;;;;;1.90;1.30;;;;;8.60;94928.00;;;;8375797;28;20216;-73
2023/04/01 04:45:26;;;;;;;4.00;1.50;;;;;8.50;94922.00;;;;8385925;28;20214;-73
2023/04/01 04:49:29;;;;;;;3.17;1.30;;;;;8.40;94922.00;;;;8389983;28;20263;-73
2023/04/01 04:53:36;;;;;;;3.17;1.30;;;;;8.30;94927.00;;;;8360230;28;20659;-72
2023/04/01 04:57:42;;;;;;;4.32;1.23;;;;;8.40;94931.00;;;;8367349;28;20192;-73
2023/04/01 05:01:45;;;;;;;1.77;1.30;;;;;8.50;94937.00;;;;8390410;28;20257;-73
2023/04/01 05:05:53;;;;;;;1.63;1.20;;;;;8.60;94941.00;;;;8391673;28;20885;-72
2023/04/01 05:09:58;;;;;;;2.30;1.27;;;;;8.60;94940.00;;;;8379043;28;20227;-72
2023/04/01 05:14:05;;;;;;;4.20;1.50;;;;;8.70;94938.00;;;;8388850;28;20192;-72
2023/04/01 05:18:11;;;;;;;2.20;1.10;;;;;8.80;94947.00;;;;8396834;28;20200;-71
2023/04/01 05:22:14;;;;;;;4.10;1.27;;;;;8.80;94939.00;;;;8364984;28;20274;-72
2023/04/01 05:26:18;;;;;;;2.43;1.10;;;;;8.90;94945.00;;;;8381716;28;20191;-73
2023/04/01 05:30:22;;;;;;;3.83;1.43;;;;;8.90;94951.00;;;;8385654;28;20216;-73
2023/04/01 05:34:26;;;;;;;2.20;1.45;;;;;8.90;94957.00;;;;8383991;28;20201;-73
2023/04/01 05:38:29;;;;;;;2.08;1.20;;;;;9.00;94946.00;;;;8393407;28;20281;-72
2023/04/01 05:42:36;;;;;;;1.10;1.10;;;;;9.10;94949.00;;;;8382508;28;20223;-72
2023/04/01 05:46:40;;;;;;;2.10;1.27;;;;;9.10;94951.00;;;;8378479;28;20192;-73
2023/04/01 05:50:43;;;;;;;0.90;0.90;;;;;9.20;94946.00;;;;8392481;28;20202;-73
2023/04/01 05:54:46;;;;;;;0.90;0.90;;;;;9.20;94952.00;;;;8383333;28;20196;-73
2023/04/01 05:58:53;;;;;;;1.00;0.93;;;;;9.30;94956.00;;;;8388017;28;20253;-72
2023/04/01 06:03:07;;;;;;;1.83;1.03;;;;;9.40;94950.00;;;;8385060;28;20220;-72
2023/04/01 06:07:14;;;;;;;4.45;1.13;;;;;9.40;94960.00;;;;8382863;28;20201;-71
2023/04/01 06:11:26;;;;;;;0.85;0.85;;;;;9.40;94949.00;;;;8388902;28;20231;-71
2023/04/01 06:15:43;;;;;;;3.42;1.63;;;;;9.50;94960.00;;;;8409865;28;20617;-71
2023/04/01 06:19:54;;;;;;;1.00;1.00;;;;;9.50;94958.00;;;;8413140;28;20192;-72
2023/04/01 06:24:06;;;;;;;0.80;0.80;;;;;9.50;94974.00;;;;8393147;28;20653;-71
2023/04/01 06:28:42;;;;;;;1.90;1.00;;;;;9.60;94972.00;;;;8406034;28;20633;-72
2023/04/01 06:33:17;;;;;;;2.42;1.20;;;;;9.70;94980.00;;;;8409816;28;20201;-73
2023/04/01 06:37:43;;;;;;;1.17;1.00;;;;;9.60;94978.00;;;;8405992;28;20212;-71
2023/04/01 06:42:16;;;;;;;0.90;0.90;;;;;9.60;94979.00;;;;8409417;28;20215;-71
2023/04/01 06:46:27;;;;;;;2.10;1.10;;;;;9.60;94981.00;;;;8398405;28;20191;-72
2023/04/01 06:50:42;;;;;;;0.93;0.90;;;;;9.60;94983.00;;;;8423114;28;20200;-72
2023/04/01 06:54:54;;;;;;;0.90;0.90;;;;;9.80;94976.00;;;;8413081;28;20245;-73
2023/04/01 06:59:02;;;;;;;1.75;0.90;;;;;9.90;94974.00;;;;8419693;28;20257;-73
2023/04/01 07:03:19;;;;;;;2.67;1.23;;;;;10.00;94987.00;;;;8405082;28;20804;-71
2023/04/01 07:07:31;;;;;;;1.02;0.98;;;;;10.30;94967.00;;;;8408326;28;20766;-75
2023/04/01 07:11:38;;;;;;;1.00;1.00;;;;;10.60;94969.00;;;;8421615;28;20300;-74
2023/04/01 07:15:56;;;;;;;0.90;0.90;;;;;10.80;94974.00;;;;8419303;28;20203;-73
2023/04/01 07:20:06;;;;;;;0.90;0.90;;;;;10.90;94978.00;;;;8413948;28;20195;-73
2023/04/01 07:24:21;;;;;;;1.98;0.90;;;;;11.00;94966.00;;;;8406271;28;20201;-72
2023/04/01 07:28:31;;;;;;;1.00;1.00;;;;;11.20;94967.00;;;;8401488;28;20211;-73
2023/04/01 07:32:43;;;;;;;1.00;1.00;;;;;11.20;94970.00;;;;8411500;28;20223;-73
2023/04/01 07:36:52;;;;;;;1.75;1.10;;;;;11.20;94973.00;;;;8410753;28;20205;-73
2023/04/01 07:41:10;;;;;;;1.10;1.00;;;;;11.20;94969.00;;;;8409980;28;20712;-73
2023/04/01 07:45:26;;;;;;;0.80;0.80;;;;;11.20;94971.00;;;;8410389;28;20645;-73
2023/04/01 07:49:37;;;;;;;1.05;1.00;;;;;11.20;94974.00;;;;8408687;28;20593;-72
2023/04/01 07:53:48;;;;;;;0.80;0.80;;;;;11.40;94978.00;;;;8414243;28;20201;-73
2023/04/01 07:58:03;;;;;;;1.75;1.00;;;;;11.50;94977.00;;;;8406132;28;20607;-72
2023/04/01 08:02:21;;;;;;;1.00;1.00;;;;;11.70;94968.00;;;;8408993;28;20262;-72
2023/04/01 08:06:34;;;;;;;1.00;1.00;;;;;11.70;94971.00;;;;8431072;28;20212;-72
2023/04/01 08:10:46;;;;;;;1.10;1.10;;;;;11.90;94977.00;;;;8424696;28;20195;-72
2023/04/01 08:15:02;;;;;;;1.00;1.00;;;;;12.30;94967.00;;;;8417466;28;20261;-72
2023/04/01 08:19:16;;;;;;;1.45;1.10;;;;;12.50;94963.00;;;;8411986;28;20735;-72
2023/04/01 08:23:23;;;;;;;1.10;1.10;;;;;12.80;94965.00;;;;8409902;28;20296;-72
2023/04/01 08:27:35;;;;;;;1.08;1.08;;;;;13.10;94965.00;;;;8423860;28;20241;-72
2023/04/01 08:31:50;;;;;;;2.25;1.13;;;;;13.50;94959.00;;;;8427513;28;20214;-72
2023/04/01 08:35:57;;;;;;;3.05;0.90;;;;;13.90;94961.00;;;;8427324;28;20198;-72
2023/04/01 08:40:10;;;;;;;0.90;0.90;;;;;13.90;94955.00;;;;8417586;28;20322;-73
2023/04/01 08:44:51;;;;;;;0.90;0.90;;;;;13.80;94961.00;;;;8410700;28;20951;-72
2023/04/01 08:49:07;;;;;;;1.10;1.00;;;;;13.90;94961.00;;;;8336107;28;20192;-73
2023/04/01 08:53:19;;;;;;;1.00;1.00;;;;;13.80;94960.00;;;;8419827;28;20255;-72
2023/04/01 08:57:36;;;;;;;0.93;0.90;;;;;14.10;94958.00;;;;8411802;28;20759;-72
2023/04/01 09:01:56;;;;;;;1.00;1.00;;;;;14.30;94934.00;;;;8413709;28;20585;-72
2023/04/01 09:06:39;;;;;;;0.90;0.90;;;;;14.00;94934.00;;;;8419783;28;20204;-73
2023/04/01 09:11:22;;;;;;;1.05;0.93;;;;;14.00;94940.00;;;;8405701;28;20672;-72
2023/04/01 09:16:03;;;;;;;1.05;1.05;;;;;14.00;94947.00;;;;8423013;28;20207;-72
2023/04/01 09:20:28;;;;;;;0.90;0.90;;;;;14.10;94949.00;;;;8411615;28;20230;-72
2023/04/01 09:24:51;;;;;;;1.83;0.93;;;;;14.00;94950.00;;;;8413495;28;20271;-73
2023/04/01 09:29:03;;;;;;;2.35;1.13;;;;;13.70;94951.00;;;;8414827;28;20256;-72
2023/04/01 09:33:37;;;;;;;1.35;0.95;;;;;13.70;94947.00;;;;8409860;28;20196;-73
2023/04/01 09:37:55;;;;;;;0.93;0.93;;;;;13.60;94956.00;;;;8403804;28;20196;-73
2023/04/01 09:42:25;;;;;;;1.17;1.00;;;;;13.70;94938.00;;;;8414933;28;20223;-73
2023/04/01 09:46:39;;;;;;;1.00;1.00;;;;;13.80;94954.00;;;;8414414;28;20191;-72
2023/04/01 09:50:53;;;;;;;0.98;0.98;;;;;14.20;94945.00;;;;8415647;28;20193;-72
2023/04/01 09:55:07;;;;;;;1.00;1.00;;;;;14.20;94959.00;;;;8408057;28;20771;-73
2023/04/01 09:59:39;;;;;;;1.02;1.00;;;;;13.90;94968.00;;;;8404992;28;20672;-73
2023/04/01 10:04:24;;;;;;;0.90;0.90;;;;;13.60;94963.00;;;;8395836;28;20288;-73
2023/04/01 10:09:06;;;;;;;1.33;1.00;;;;;13.30;94984.00;;;;8403723;28;20202;-72
2023/04/01 10:13:37;;;;;;;1.30;1.10;;;;;13.20;94941.00;;;;8412715;28;20698;-72
2023/04/01 10:18:05;;;;;;;1.20;1.20;;;;;13.10;94960.00;;;;8410330;28;20195;-72
2023/04/01 10:22:35;;;;;;;1.00;1.00;;;;;13.20;94952.00;;;;8410754;28;20226;-73
2023/04/01 10:27:22;;;;;;;1.40;0.98;;;;;13.30;94953.00;;;;8407447;28;20226;-72
2023/04/01 10:31:54;;;;;;;1.75;1.10;;;;;13.40;94941.00;;;;8415445;28;20224;-72
2023/04/01 10:36:39;;;;;;;0.90;0.90;;;;;13.40;94939.00;;;;8405253;28;20663;-71
2023/04/01 10:41:06;;;;;;;1.00;1.00;;;;;13.50;94941.00;;;;8412927;28;20204;-73
2023/04/01 10:45:42;;;;;;;0.90;0.90;;;;;13.50;94940.00;;;;8410370;28;20658;-72
2023/04/01 10:49:56;;;;;;;0.90;0.90;;;;;13.80;94941.00;;;;8409133;28;20269;-71
2023/04/01 10:54:19;;;;;;;0.90;0.90;;;;;14.20;94930.00;;;;8408311;28;20205;-72
2023/04/01 10:59:00;;;;;;;4.03;2.50;;;;;14.80;94918.00;;;;8404030;28;20644;-73
2023/04/01 11:03:40;;;;;;;4.70;4.03;;;;;14.90;94929.00;;;;8391079;28;20653;-72
2023/04/01 11:08:19;;;;;;;8.32;6.82;;;;;14.80;94947.00;;;;8414867;28;20224;-72
2023/04/01 11:13:04;;;;;;;3.00;2.80;;;;;14.20;94942.00;;;;8405007;28;20242;-72
2023/04/01 11:17:28;;;;;;;18.20;12.13;;;;;13.50;94948.00;;;;8398792;28;20221;-73
2023/04/01 11:22:10;;;;;;;2.47;1.80;;;;;12.80;94946.00;;;;8413455;28;20206;-74
2023/04/01 11:26:29;;;;;;;1.88;1.77;;;;;12.30;94957.00;;;;8416425;28;20199;-73
2023/04/01 11:30:55;;;;;;;2.40;2.30;;;;;12.00;94958.00;;;;8411491;28;20208;-73
2023/04/01 11:35:16;;;;;;;4.13;3.85;;;;;11.90;94970.00;;;;8413622;28;20365;-72
2023/04/01 11:39:30;;;;;;;5.40;4.97;;;;;11.60;94966.00;;;;8402006;28;20212;-72
2023/04/01 11:43:39;;;;;;;82.63;67.68;;;;;11.40;94963.00;;;;8408746;28;20234;-73
2023/04/01 11:48:13;;;;;;;4.45;2.97;;;;;11.20;94965.00;;;;8408347;28;20207;-73
2023/04/01 11:52:26;;;;;;;3.25;3.05;;;;;11.20;94968.00;;;;8411379;28;20203;-74
2023/04/01 11:56:46;;;;;;;10.18;9.10;;;;;11.10;94965.00;;;;8411347;28;20199;-75
2023/04/01 12:01:13;;;;;;;3.47;3.25;;;;;11.10;94970.00;;;;8416963;28;20666;-74
2023/04/01 12:05:39;;;;;;;3.65;3.45;;;;;11.20;94960.00;;;;8408412;28;20229;-73
2023/04/01 12:09:52;;;;;;;2.05;1.95;;;;;11.20;94970.00;;;;8399746;28;20195;-74
2023/04/01 12:14:07;;;;;;;1.15;1.08;;;;;11.20;94965.00;;;;8406740;28;20273;-74
2023/04/01 12:18:18;;;;;;;1.00;1.00;;;;;11.00;94976.00;;;;8404086;28;20213;-74
2023/04/01 12:22:35;;;;;;;1.00;1.00;;;;;10.80;94962.00;;;;8407675;28;20284;-74
2023/04/01 12:27:09;;;;;;;1.92;1.00;;;;;10.70;94981.00;;;;8405385;28;20214;-74
2023/04/01 12:31:24;;;;;;;1.20;1.10;;;;;10.60;94980.00;;;;8409050;28;20818;-75
2023/04/01 12:35:31;;;;;;;0.90;0.90;;;;;10.40;94973.00;;;;8412345;28;20212;-74
2023/04/01 12:40:03;;;;;;;2.10;1.30;;;;;10.30;94983.00;;;;8406566;28;20203;-75
2023/04/01 12:44:35;;;;;;;1.13;1.00;;;;;10.10;94972.00;;;;8409920;28;20229;-73
2023/04/01 12:49:13;;;;;;;12.07;10.18;;;;;10.10;94986.00;;;;8409117;28;20749;-72
2023/04/01 12:53:36;;;;;;;1.70;1.60;;;;;10.20;94967.00;;;;8414332;28;20204;-72
2023/04/01 12:58:10;;;;;;;1.00;1.00;;;;;10.30;94981.00;;;;8408231;28;20197;-72
2023/04/01 13:02:21;;;;;;;1.23;1.23;;;;;10.40;94975.00;;;;8407484;28;20227;-74
2023/04/01 13:06:33;;;;;;;1.75;1.25;;;;;10.30;94980.00;;;;8419409;28;20603;-73
2023/04/01 13:11:08;;;;;;;2.70;2.50;;;;;10.20;94990.00;;;;8424001;28;20622;-74
2023/04/01 13:15:23;;;;;;;1.05;1.05;;;;;10.30;94990.00;;;;8428011;28;20243;-74
2023/04/01 13:19:32;;;;;;;1.23;1.13;;;;;10.40;94986.00;;;;8425013;28;20191;-74
2023/04/01 13:23:44;;;;;;;1.10;1.10;;;;;10.40;94994.00;;;;8419374;28;20234;-74
2023/04/01 13:27:57;;;;;;;31.90;28.40;;;;;10.50;94996.00;;;;8414509;28;20199;-72
2023/04/01 13:32:14;;;;;;;38.85;26.08;;;;;10.50;94993.00;;;;8418908;28;20964;-74
2023/04/01 13:36:29;;;;;;;8.05;7.20;;;;;10.50;94997.00;;;;8412713;28;20677;-73
2023/04/01 13:40:45;;;;;;;10.15;9.23;;;;;10.50;94999.00;;;;8422715;28;20194;-72
2023/04/01 13:45:13;;;;;;;6.95;6.25;;;;;10.50;95003.00;;;;8415677;28;20677;-72
2023/04/01 13:50:05;;;;;;;7.72;7.03;;;;;10.60;95004.00;;;;8414079;28;20241;-73
2023/04/01 13:54:33;;;;;;;1.40;1.40;;;;;10.50;95008.00;;;;8277629;28;20240;-72
2023/04/01 13:59:20;;;;;;;1.38;1.27;;;;;10.40;95003.00;;;;8351919;28;20199;-73
2023/04/01 14:04:12;;;;;;;2.13;1.90;;;;;10.50;95005.00;;;;8392998;28;20232;-73
2023/04/01 14:08:30;;;;;;;2.67;2.40;;;;;10.40;95020.00;;;;8409135;28;20199;-74
2023/04/01 14:12:43;;;;;;;10.20;5.82;;;;;10.40;95016.00;;;;8399249;28;20201;-73
2023/04/01 14:17:04;;;;;;;12.60;7.72;;;;;10.50;95013.00;;;;8411192;28;20197;-73
2023/04/01 14:21:27;;;;;;;9.50;5.78;;;;;10.40;95015.00;;;;8403038;28;20192;-73
2023/04/01 14:25:50;;;;;;;6.28;4.18;;;;;10.40;95013.00;;;;8406963;28;20288;-73
2023/04/01 14:30:06;;;;;;;2.67;2.47;;;;;10.20;95000.00;;;;8409807;28;20200;-72
2023/04/01 14:34:25;;;;;;;2.17;2.08;;;;;10.10;95006.00;;;;8413896;28;20282;-73
2023/04/01 14:38:43;;;;;;;2.45;2.20;;;;;10.00;95016.00;;;;8415549;28;20707;-72
2023/04/01 14:43:10;;;;;;;1.75;1.67;;;;;10.00;95020.00;;;;8403716;28;20221;-72
2023/04/01 14:47:45;;;;;;;2.17;2.08;;;;;10.00;95009.00;;;;8420343;28;20202;-72
2023/04/01 14:51:53;;;;;;;1.27;1.17;;;;;10.00;95014.00;;;;8403908;28;20310;-73
2023/04/01 14:56:00;;;;;;;2.08;1.33;;;;;10.00;95029.00;;;;8408147;28;20200;-74
2023/04/01 15:00:18;;;;;;;1.70;1.60;;;;;10.00;95014.00;;;;8398489;28;20914;-73
2023/04/01 15:04:44;;;;;;;1.50;1.30;;;;;10.00;95021.00;;;;8402012;28;20241;-73
2023/04/01 15:08:55;;;;;;;2.05;1.80;;;;;10.10;95027.00;;;;8403616;28;20197;-73
2023/04/01 15:13:14;;;;;;;1.52;1.25;;;;;10.20;95019.00;;;;8397748;28;20200;-73
2023/04/01 15:17:49;;;;;;;1.48;1.30;;;;;10.30;95021.00;;;;8386200;28;20208;-72
2023/04/01 15:22:09;;;;;;;2.00;1.90;;;;;10.20;95028.00;;;;8398979;28;20291;-72
2023/04/01 15:26:40;;;;;;;1.92;1.83;;;;;10.20;95023.00;;;;8405713;28;20223;-74
2023/04/01 15:30:52;;;;;;;1.50;1.50;;;;;10.30;95029.00;;;;8403039;28;20203;-73
2023/04/01 15:35:03;;;;;;;1.27;1.27;;;;;10.30;95032.00;;;;8386223;28;20204;-73
2023/04/01 15:39:15;;;;;;;2.28;2.00;;;;;10.40;95029.00;;;;8400332;28;20611;-73
2023/04/01 15:43:28;;;;;;;2.50;1.70;;;;;10.40;95029.00;;;;8396721;28;20233;-73
2023/04/01 15:47:44;;;;;;;1.33;1.33;;;;;10.40;95040.00;;;;8401108;28;20203;-74
2023/04/01 15:52:16;;;;;;;3.25;2.10;;;;;10.50;95041.00;;;;8404139;28;20284;-74
2023/04/01 15:56:39;;;;;;;1.77;1.70;;;;;10.50;95046.00;;;;8400114;28;20249;-74
2023/04/01 16:00:49;;;;;;;2.08;1.95;;;;;10.50;95047.00;;;;8396198;28;68597;-74
2023/04/01 16:05:01;;;;;;;1.65;1.55;;;;;10.50;95041.00;;;;8402249;28;20945;-74
2023/04/01 16:09:29;;;;;;;1.80;1.70;;;;;10.40;95043.00;;;;8411622;28;20207;-74
2023/04/01 16:13:44;;;;;;;1.83;1.73;;;;;10.40;95045.00;;;;8397264;28;20203;-74
2023/04/01 16:18:05;;;;;;;1.85;1.58;;;;;10.30;95050.00;;;;8407010;28;20560;-73
2023/04/01 16:22:13;;;;;;;1.75;1.70;;;;;10.30;95046.00;;;;8394663;28;20830;-74
2023/04/01 16:26:27;;;;;;;1.27;1.27;;;;;10.30;95053.00;;;;8413171;28;20684;-73
2023/04/01 16:30:39;;;;;;;1.13;1.02;;;;;10.20;95061.00;;;;8407537;28;20204;-73
2023/04/01 16:34:47;;;;;;;1.30;1.30;;;;;10.10;95056.00;;;;8409494;28;20199;-73
2023/04/01 16:38:54;;;;;;;1.42;1.40;;;;;10.10;95065.00;;;;8393081;28;20641;-73
2023/04/01 16:43:11;;;;;;;1.65;1.55;;;;;10.10;95064.00;;;;8407726;28;20257;-74
2023/04/01 16:47:27;;;;;;;1.33;1.33;;;;;10.10;95069.00;;;;8415051;28;20288;-74
2023/04/01 16:51:43;;;;;;;1.10;1.10;;;;;10.10;95074.00;;;;8419464;28;20211;-74
2023/04/01 16:56:00;;;;;;;1.15;1.15;;;;;10.00;95085.00;;;;8409893;28;20650;-74
2023/04/01 17:00:18;;;;;;;1.40;1.30;;;;;9.90;95080.00;;;;8408895;28;20195;-73
2023/04/01 17:04:32;;;;;;;2.17;2.08;;;;;9.90;95090.00;;;;8392906;28;20728;-74
2023/04/01 17:09:03;;;;;;;2.63;1.30;;;;;9.90;95098.00;;;;8411845;28;20221;-73
2023/04/01 17:13:24;;;;;;;2.42;1.70;;;;;9.80;95102.00;;;;8406343;28;20192;-73
2023/04/01 17:17:44;;;;;;;1.30;1.20;;;;;9.80;95101.00;;;;8408044;28;20341;-73
2023/04/01 17:22:02;;;;;;;1.33;1.25;;;;;9.70;95106.00;;;;8412569;28;20301;-73
2023/04/01 17:26:21;;;;;;;1.30;1.20;;;;;9.70;95111.00;;;;8403012;28;20230;-74
2023/04/01 17:30:36;;;;;;;1.33;1.27;;;;;9.70;95103.00;;;;8414822;28;20198;-72
2023/04/01 17:34:59;;;;;;;1.20;1.20;;;;;9.60;95108.00;;;;8412808;28;20231;-73
2023/04/01 17:39:19;;;;;;;3.35;1.35;;;;;9.60;95107.00;;;;8411333;28;20993;-73
2023/04/01 17:43:32;;;;;;;1.30;1.17;;;;;9.60;95121.00;;;;8407878;28;20219;-74
2023/04/01 17:47:50;;;;;;;1.20;1.20;;;;;9.50;95128.00;;;;8420699;28;20657;-73
2023/04/01 17:52:00;;;;;;;1.27;1.27;;;;;9.60;95128.00;;;;8414992;28;20219;-74
2023/04/01 17:56:15;;;;;;;1.05;1.05;;;;;9.50;95133.00;;;;8413448;28;20196;-74
2023/04/01 18:00:26;;;;;;;1.67;1.00;;;;;9.50;95129.00;;;;8404365;28;20204;-72
2023/04/01 18:05:32;;;;;;;1.10;1.10;;;;;9.40;95130.00;;;;8397614;28;20812;-72
2023/04/01 18:09:48;;;;;;;1.23;1.20;;;;;9.50;95130.00;;;;8393316;28;20321;-73
2023/04/01 18:14:20;;;;;;;1.77;1.63;;;;;9.50;95137.00;;;;8403203;28;20550;-73
2023/04/01 18:18:44;;;;;;;1.33;1.33;;;;;9.50;95144.00;;;;8415186;28;20324;-73
2023/04/01 18:22:54;;;;;;;4.20;1.75;;;;;9.50;95154.00;;;;8393079;28;20200;-74
2023/04/01 18:27:08;;;;;;;1.38;1.38;;;;;9.60;95158.00;;;;8401689;28;20591;-74
2023/04/01 18:31:19;;;;;;;1.55;1.40;;;;;9.60;95153.00;;;;8404577;28;20203;-74
2023/04/01 18:35:34;;;;;;;1.00;1.00;;;;;9.60;95168.00;;;;8411107;28;20199;-74
2023/04/01 18:39:42;;;;;;;1.08;1.08;;;;;9.70;95163.00;;;;8407410;28;20206;-75
2023/04/01 18:44:01;;;;;;;1.27;1.17;;;;;9.70;95174.00;;;;8411949;28;20681;-74
2023/04/01 18:48:34;;;;;;;1.25;1.20;;;;;9.70;95188.00;;;;8423040;28;20603;-74
2023/04/01 18:52:41;;;;;;;1.30;1.20;;;;;9.70;95191.00;;;;8428061;28;20202;-74
2023/04/01 18:56:45;;;;;;;1.27;1.20;;;;;9.70;95194.00;;;;8415123;28;20201;-74
2023/04/01 19:01:05;;;;;;;1.10;1.10;;;;;9.70;95202.00;;;;8411043;28;20204;-74
2023/04/01 19:05:13;;;;;;;1.20;1.20;;;;;9.60;95196.00;;;;8404967;28;20608;-74
2023/04/01 19:09:26;;;;;;;1.17;1.17;;;;;9.70;95203.00;;;;8409224;28;20192;-74
2023/04/01 19:13:36;;;;;;;1.40;1.35;;;;;9.60;95215.00;;;;8394390;28;20206;-74
2023/04/01 19:17:52;;;;;;;1.10;1.10;;;;;9.60;95219.00;;;;8396806;28;20228;-74
2023/04/01 19:21:59;;;;;;;1.30;1.30;;;;;9.70;95216.00;;;;8395909;28;20757;-74
2023/04/01 19:26:09;;;;;;;1.33;1.20;;;;;9.70;95227.00;;;;8411565;28;20314;-74
2023/04/01 19:30:24;;;;;;;3.40;1.20;;;;;9.60;95222.00;;;;8413313;28;20191;-74
2023/04/01 19:34:39;;;;;;;1.10;1.10;;;;;9.50;95231.00;;;;8400077;28;20704;-74
2023/04/01 19:38:53;;;;;;;0.90;0.90;;;;;9.50;95233.00;;;;8398305;28;20205;-74
2023/04/01 19:43:08;;;;;;;1.58;1.48;;;;;9.40;95224.00;;;;8403809;28;20256;-74
2023/04/01 19:47:23;;;;;;;1.65;1.40;;;;;9.50;95233.00;;;;8410336;28;20824;-74
2023/04/01 19:51:37;;;;;;;1.10;1.10;;;;;9.50;95233.00;;;;8414714;28;20292;-74
2023/04/01 19:55:49;;;;;;;1.10;1.10;;;;;9.50;95239.00;;;;8398352;28;20637;-74
2023/04/01 19:59:59;;;;;;;1.55;1.52;;;;;9.50;95240.00;;;;8411245;28;20227;-74
2023/04/01 20:04:08;;;;;;;1.40;1.30;;;;;9.60;95247.00;;;;8416714;28;20227;-73
2023/04/01 20:08:24;;;;;;;1.50;1.40;;;;;9.60;95248.00;;;;8409146;28;20289;-74
2023/04/01 20:12:42;;;;;;;2.13;1.95;;;;;9.60;95249.00;;;;8408802;28;20616;-74
2023/04/01 20:17:00;;;;;;;1.88;1.77;;;;;9.60;95249.00;;;;8397658;28;20207;-74
2023/04/01 20:21:19;;;;;;;2.50;2.30;;;;;9.50;95248.00;;;;8398944;28;20195;-74
2023/04/01 20:25:27;;;;;;;1.90;1.80;;;;;9.50;95261.00;;;;8394744;28;20216;-73
2023/04/01 20:29:43;;;;;;;2.45;1.60;;;;;9.60;95263.00;;;;8403664;28;20205;-74
2023/04/01 20:34:16;;;;;;;2.38;2.10;;;;;9.60;95259.00;;;;8408327;28;20208;-74
2023/04/01 20:38:47;;;;;;;1.65;1.55;;;;;9.60;95268.00;;;;8393403;28;20286;-73
2023/04/01 20:43:26;;;;;;;1.13;1.13;;;;;9.60;95272.00;;;;8410384;28;20641;-74
2023/04/01 20:47:54;;;;;;;2.65;1.70;;;;;9.50;95263.00;;;;8406164;28;20761;-74
2023/04/01 20:52:12;;;;;;;2.08;1.85;;;;;9.60;95277.00;;;;8414968;28;20286;-75
2023/04/01 20:56:45;;;;;;;1.30;1.30;;;;;9.60;95271.00;;;;8410269;28;20730;-73
2023/04/01 21:01:04;;;;;;;2.55;1.50;;;;;9.70;95276.00;;;;8401691;28;20198;-74
2023/04/01 21:05:43;;;;;;;2.05;1.23;;;;;9.60;95281.00;;;;8413200;28;20249;-74
2023/04/01 21:09:56;;;;;;;1.38;1.38;;;;;9.60;95278.00;;;;8374557;28;20216;-74
2023/04/01 21:14:17;;;;;;;1.20;1.20;;;;;9.60;95283.00;;;;8395523;28;20590;-74
2023/04/01 21:18:43;;;;;;;3.78;1.23;;;;;9.60;95276.00;;;;8403957;28;20225;-73
2023/04/01 21:23:00;;;;;;;1.38;1.27;;;;;9.50;95286.00;;;;8409909;28;20252;-74
2023/04/01 21:27:14;;;;;;;1.33;1.23;;;;;9.50;95289.00;;;;8399670;28;20637;-74
2023/04/01 21:31:26;;;;;;;6.38;3.03;;;;;9.50;95294.00;;;;8408632;28;20208;-73